Time;durP1;ratioP1;P1;durP2;ratioP2;P2;SDS_P1;SDS_P2;PMS_P1;PMS_P2;Temp;Humidity;BMP_temperature;BMP_pressure;BME280_temperature;BME280_humidity;BME280_pressure;Samples;Min_cycle;Max_cycle;Signal;HPM_P1;HPM_P2
2022/03/24 00:00:06;;;;;;;11.00;8.80;;;10.90;45.80;;;-142.21;60.97;112049.66;4955234;29;20445;-77
2022/03/24 00:02:33;;;;;;;15.53;8.50;;;10.90;46.40;;;-142.21;58.83;112049.66;4954893;28;20484;-76
2022/03/24 00:05:09;;;;;;;13.97;8.23;;;10.90;45.70;;;-142.21;58.90;112049.66;4954501;28;20556;-78
2022/03/24 00:07:36;;;;;;;12.40;8.50;;;10.90;46.00;;;-142.21;58.30;112049.66;4955499;29;21008;-77
2022/03/24 00:10:05;;;;;;;11.53;8.57;;;10.80;45.70;;;-142.21;58.40;112049.66;4954694;28;20452;-77
2022/03/24 00:12:33;;;;;;;11.60;8.90;;;10.90;46.00;;;-142.21;59.21;112049.66;4954660;28;20575;-78
2022/03/24 00:15:02;;;;;;;12.40;8.27;;;10.90;45.80;;;-142.21;59.31;112049.66;4954432;29;20426;-77
2022/03/24 00:17:30;;;;;;;12.57;8.97;;;10.90;45.80;;;-142.21;57.83;112049.66;4954944;28;20515;-77
2022/03/24 00:19:58;;;;;;;10.67;8.70;;;11.00;45.40;;;-142.21;56.42;112049.66;4954476;28;20465;-77
2022/03/24 00:22:26;;;;;;;12.33;8.90;;;11.00;45.10;;;-142.21;56.56;112049.66;4954903;28;20468;-77
2022/03/24 00:24:54;;;;;;;14.87;9.93;;;10.90;44.90;;;-142.21;56.80;112049.66;4954862;29;20480;-77
2022/03/24 00:27:21;;;;;;;12.87;8.80;;;10.90;44.80;;;-142.21;56.04;112049.66;4954882;28;20867;-77
2022/03/24 00:29:48;;;;;;;12.43;10.10;;;10.80;44.60;;;-142.21;56.31;112049.66;4935978;29;20457;-77
2022/03/24 00:32:17;;;;;;;12.70;9.23;;;10.70;44.70;;;-142.21;57.93;112049.66;4935161;29;21155;-78
2022/03/24 00:34:45;;;;;;;12.30;10.03;;;10.70;45.00;;;-142.21;57.20;112049.66;4936327;29;20556;-77
2022/03/24 00:37:12;;;;;;;15.57;10.20;;;10.70;45.00;;;-142.21;57.05;112049.66;4935381;29;20481;-78
2022/03/24 00:39:40;;;;;;;14.67;10.43;;;10.70;44.80;;;-142.21;56.75;112049.66;4935583;29;20450;-77
2022/03/24 00:42:11;;;;;;;14.97;10.73;;;10.60;45.10;;;-142.21;57.07;112049.66;4934771;29;20479;-76
2022/03/24 00:44:41;;;;;;;14.00;9.67;;;10.40;45.10;;;-142.21;56.88;112049.66;4941511;29;20456;-77
2022/03/24 00:47:10;;;;;;;15.20;11.00;;;10.40;44.90;;;-142.21;56.53;112049.66;4954095;29;20456;-77
2022/03/24 00:49:39;;;;;;;12.27;9.93;;;10.50;44.70;;;-142.21;57.03;112049.66;4954481;28;20802;-78
2022/03/24 00:52:09;;;;;;;13.00;9.53;;;10.50;44.70;;;-142.21;57.10;112049.66;4953894;28;20480;-78
2022/03/24 00:54:37;;;;;;;16.53;11.13;;;10.50;45.10;;;-142.21;56.41;112049.66;4954355;28;20439;-78
2022/03/24 00:57:04;;;;;;;15.43;10.07;;;10.30;45.20;;;-142.21;56.96;112049.66;4954818;29;20456;-77
2022/03/24 00:59:32;;;;;;;14.63;10.27;;;10.20;45.60;;;-142.21;56.72;112049.66;4955155;28;20504;-77
2022/03/24 01:01:59;;;;;;;15.93;10.73;;;10.20;45.90;;;-142.21;58.44;112049.66;4957777;28;20473;-77
2022/03/24 01:04:26;;;;;;;15.13;9.97;;;10.10;45.60;;;-142.21;58.57;112049.66;4958027;28;20551;-77
2022/03/24 01:06:55;;;;;;;15.77;9.83;;;10.20;45.70;;;-142.21;57.37;112049.66;4957647;28;20475;-77
2022/03/24 01:09:22;;;;;;;14.70;11.00;;;10.20;45.80;;;-142.21;57.52;112049.66;4957244;28;20480;-77
2022/03/24 01:11:50;;;;;;;17.40;10.43;;;10.10;45.90;;;-142.21;56.64;112049.66;4957965;29;20519;-77
2022/03/24 01:14:18;;;;;;;15.10;10.87;;;10.00;45.70;;;-142.21;58.10;112049.66;4957952;28;20491;-76
2022/03/24 01:16:46;;;;;;;14.90;11.03;;;10.00;46.00;;;-142.21;57.28;112049.66;4957607;28;20464;-77
2022/03/24 01:19:14;;;;;;;15.97;10.87;;;9.90;46.90;;;-142.21;57.00;112049.66;4958062;28;20476;-77
2022/03/24 01:21:42;;;;;;;17.30;11.63;;;9.80;46.80;;;-142.21;57.64;112049.66;4957601;28;20469;-77
2022/03/24 01:24:11;;;;;;;17.10;10.83;;;9.80;47.60;;;-142.21;59.56;112049.66;4967627;28;20544;-77
2022/03/24 01:26:38;;;;;;;15.67;10.90;;;9.80;47.60;;;-142.21;62.13;112049.66;4977597;28;20429;-79
2022/03/24 01:29:08;;;;;;;14.40;10.60;;;9.60;48.00;;;-142.21;61.24;112049.66;4980457;28;20445;-79
2022/03/24 01:31:35;;;;;;;15.50;10.20;;;9.60;48.00;;;-142.21;62.58;112049.66;4980402;28;20508;-79
2022/03/24 01:34:02;;;;;;;15.77;10.27;;;9.60;48.40;;;-142.21;62.03;112049.66;4980762;28;20501;-78
2022/03/24 01:36:30;;;;;;;13.80;10.50;;;9.60;48.40;;;-142.21;61.62;112049.66;4974716;28;20454;-79
2022/03/24 01:38:57;;;;;;;14.13;10.27;;;9.50;48.50;;;-142.21;62.95;112049.66;4990600;28;20445;-79
2022/03/24 01:41:25;;;;;;;13.40;9.87;;;9.40;49.00;;;-142.21;62.53;112049.66;4980952;28;20436;-78
2022/03/24 01:43:52;;;;;;;15.37;10.30;;;9.30;48.60;;;-142.21;61.95;112049.66;4972394;28;20456;-78
2022/03/24 01:46:24;;;;;;;13.10;9.80;;;9.40;48.30;;;-142.21;61.01;112049.66;4967907;28;20464;-77
2022/03/24 01:48:51;;;;;;;12.67;9.63;;;9.40;48.10;;;-142.21;61.50;112049.66;4965238;28;21036;-77
2022/03/24 01:51:19;;;;;;;16.40;10.63;;;9.50;47.80;;;-142.21;60.81;112049.66;4962284;28;21067;-79
2022/03/24 01:53:46;;;;;;;14.63;10.47;;;9.50;48.00;;;-142.21;61.29;112049.66;4958432;28;20484;-78
2022/03/24 01:56:15;;;;;;;15.97;10.70;;;9.60;47.80;;;-142.21;62.70;112049.66;4958037;28;20978;-77
2022/03/24 01:58:46;;;;;;;14.67;10.00;;;9.50;48.50;;;-142.21;64.42;112049.66;4957760;28;20445;-78
2022/03/24 02:01:34;;;;;;;15.03;10.77;;;9.50;48.80;;;-142.21;64.76;112049.66;4957262;29;20495;-78
2022/03/24 02:04:05;;;;;;;14.33;10.77;;;9.40;49.20;;;-142.21;66.54;112049.66;4956899;29;20501;-76
2022/03/24 02:06:32;;;;;;;17.33;10.30;;;9.30;49.20;;;-142.21;66.39;112049.66;4957000;29;20528;-76
2022/03/24 02:09:00;;;;;;;15.73;10.63;;;9.20;49.30;;;-142.21;67.25;112049.66;4956665;28;20519;-78
2022/03/24 02:11:28;;;;;;;13.73;10.27;;;9.20;49.50;;;-142.21;64.88;112049.66;4957071;28;20571;-76
2022/03/24 02:13:57;;;;;;;18.80;10.67;;;9.20;49.40;;;-142.21;66.10;112049.66;4956921;28;20481;-76
2022/03/24 02:16:30;;;;;;;14.93;10.53;;;9.20;49.60;;;-142.21;65.28;112049.66;4956846;28;20567;-77
2022/03/24 02:18:59;;;;;;;16.63;10.50;;;9.10;49.50;;;-142.21;64.88;112049.66;4956971;29;20504;-77
2022/03/24 02:21:26;;;;;;;13.13;9.57;;;9.10;49.10;;;-142.21;64.53;112049.66;4956455;28;20461;-77
2022/03/24 02:23:55;;;;;;;14.87;10.43;;;9.20;48.80;;;-142.21;64.17;112049.66;4956445;28;20523;-78
2022/03/24 02:26:22;;;;;;;15.13;10.27;;;9.20;49.20;;;-142.21;63.47;112049.66;4956189;28;20545;-77
2022/03/24 02:28:50;;;;;;;15.77;10.63;;;9.10;49.10;;;-142.21;64.65;112049.66;4956609;28;20958;-77
2022/03/24 02:31:18;;;;;;;12.50;9.70;;;9.10;48.90;;;-142.21;63.69;112049.66;4955950;28;20523;-77
2022/03/24 02:33:45;;;;;;;14.73;9.97;;;9.10;48.90;;;-142.21;65.54;112049.66;4956144;28;20557;-77
2022/03/24 02:36:12;;;;;;;13.10;9.90;;;9.10;48.90;;;-142.21;65.09;112049.66;4956139;28;20463;-77
2022/03/24 02:38:39;;;;;;;15.87;10.73;;;9.20;48.80;;;-142.21;65.60;112049.66;4956181;28;20531;-76
2022/03/24 02:41:08;;;;;;;15.80;10.67;;;9.20;48.60;;;-142.21;65.49;112049.66;4956764;28;20477;-77
2022/03/24 02:43:35;;;;;;;14.03;9.80;;;9.20;48.90;;;-142.21;64.34;112049.66;4955988;28;20774;-77
2022/03/24 02:46:02;;;;;;;14.10;9.93;;;9.20;48.00;;;-142.21;64.65;112049.66;4954324;28;20476;-77
2022/03/24 02:48:30;;;;;;;15.30;9.63;;;9.20;48.50;;;-142.21;65.25;112049.66;4955603;28;20480;-77
2022/03/24 02:50:59;;;;;;;14.17;9.50;;;9.20;48.10;;;-142.21;65.93;112049.66;4956316;28;20484;-77
2022/03/24 02:53:26;;;;;;;14.53;10.00;;;9.20;48.60;;;-142.21;64.79;112049.66;4955269;28;20489;-77
2022/03/24 02:55:54;;;;;;;14.37;10.30;;;9.20;48.70;;;-142.21;64.82;112049.66;4956203;28;20559;-77
2022/03/24 02:58:22;;;;;;;15.30;10.63;;;9.10;48.90;;;-142.21;63.98;112049.66;4957072;28;20499;-77
2022/03/24 03:00:49;;;;;;;13.73;9.97;;;8.90;49.00;;;-142.21;64.46;112049.66;4956085;28;20539;-77
2022/03/24 03:03:17;;;;;;;17.03;10.77;;;8.80;49.00;;;-142.21;64.62;112049.66;4956207;29;20547;-76
2022/03/24 03:05:44;;;;;;;14.63;10.80;;;8.80;48.70;;;-142.21;66.00;112049.66;4955489;28;20449;-77
2022/03/24 03:08:11;;;;;;;14.67;10.10;;;8.90;48.50;;;-142.21;65.94;112049.66;4955695;28;20476;-77
2022/03/24 03:10:40;;;;;;;13.30;10.77;;;8.90;48.60;;;-142.21;66.50;112049.66;4955298;28;20457;-77
2022/03/24 03:13:08;;;;;;;13.53;10.10;;;8.90;48.30;;;-142.21;66.37;112049.66;4955606;28;21015;-77
2022/03/24 03:15:37;;;;;;;15.10;10.60;;;8.90;48.80;;;-142.21;67.24;112049.66;4955531;28;20457;-77
2022/03/24 03:18:04;;;;;;;13.30;9.53;;;9.00;49.00;;;-142.21;67.42;112049.66;4955563;28;20540;-77
2022/03/24 03:20:31;;;;;;;15.03;10.20;;;9.00;49.10;;;-142.21;65.95;112049.66;4955252;28;20525;-76
2022/03/24 03:22:59;;;;;;;13.23;10.00;;;8.90;48.80;;;-142.21;65.53;112049.66;4954265;28;20476;-77
2022/03/24 03:25:26;;;;;;;14.10;9.87;;;8.90;48.90;;;-142.21;65.30;112049.66;4955583;29;20893;-77
2022/03/24 03:27:53;;;;;;;12.87;9.57;;;8.80;49.20;;;-142.21;65.48;112049.66;4954571;28;20505;-77
2022/03/24 03:30:20;;;;;;;15.43;11.20;;;8.70;48.60;;;-142.21;66.66;112049.66;4955683;28;20515;-75
2022/03/24 03:32:49;;;;;;;14.50;10.87;;;8.60;49.50;;;-142.21;66.29;112049.66;4954871;28;20560;-76
2022/03/24 03:35:16;;;;;;;16.10;10.57;;;8.50;49.40;;;-142.21;67.19;112049.66;4955942;28;20953;-77
2022/03/24 03:37:44;;;;;;;14.60;10.23;;;8.60;49.80;;;-142.21;66.04;112049.66;4955102;28;20495;-76
2022/03/24 03:40:13;;;;;;;13.60;10.43;;;8.30;49.50;;;-142.21;67.35;112049.66;4954472;28;20463;-77
2022/03/24 03:42:40;;;;;;;15.33;10.80;;;8.40;49.40;;;-142.21;67.42;112049.66;4955523;28;20967;-76
2022/03/24 03:45:08;;;;;;;14.97;10.10;;;8.40;49.30;;;-142.21;68.31;112049.66;4954762;28;21184;-76
2022/03/24 03:47:35;;;;;;;14.47;10.47;;;8.40;49.20;;;-142.21;68.18;112049.66;4955077;28;20476;-78
2022/03/24 03:50:06;;;;;;;15.53;10.33;;;8.50;49.10;;;-142.21;67.42;112049.66;4954837;28;20472;-77
2022/03/24 03:52:33;;;;;;;15.97;10.80;;;8.50;49.50;;;-142.21;67.38;112049.66;4955425;29;20559;-78
2022/03/24 03:55:00;;;;;;;15.83;10.70;;;8.40;49.20;;;-142.21;67.38;112049.66;4954841;28;20508;-77
2022/03/24 03:57:27;;;;;;;14.67;10.97;;;8.30;49.50;;;-142.21;68.08;112049.66;4954967;28;20529;-77
2022/03/24 03:59:55;;;;;;;14.77;10.63;;;8.20;50.00;;;-142.21;68.56;112049.66;4955135;28;20491;-77
2022/03/24 04:02:22;;;;;;;12.73;9.50;;;8.20;50.30;;;-142.21;68.53;112049.66;4954894;28;20528;-78
2022/03/24 04:04:50;;;;;;;15.00;10.43;;;8.00;50.20;;;-142.21;67.56;112049.66;4955755;28;20871;-77
2022/03/24 04:07:19;;;;;;;15.27;11.00;;;8.10;49.60;;;-142.21;68.36;112049.66;4954921;28;20473;-76
2022/03/24 04:09:47;;;;;;;17.48;10.93;;;8.10;49.90;;;-142.21;68.48;112049.66;4954531;28;20441;-76
2022/03/24 04:12:14;;;;;;;14.37;10.73;;;8.00;51.20;;;-142.21;67.89;112049.66;4954513;28;20318;-74
2022/03/24 04:14:41;;;;;;;19.00;11.13;;;8.00;50.50;;;-142.21;68.50;112049.66;4955218;28;20508;-76
2022/03/24 04:17:08;;;;;;;17.20;11.53;;;8.00;50.50;;;-142.21;69.42;112049.66;4954655;28;20441;-76
2022/03/24 04:19:35;;;;;;;14.77;10.50;;;7.90;50.80;;;-142.21;69.98;112049.66;4954339;28;20492;-75
2022/03/24 04:22:03;;;;;;;14.77;10.63;;;8.00;50.60;;;-142.21;67.80;112049.66;4953974;28;20946;-76
2022/03/24 04:24:31;;;;;;;16.43;11.23;;;8.00;50.70;;;-142.21;67.50;112049.66;4954104;29;20477;-76
2022/03/24 04:26:58;;;;;;;15.70;10.87;;;7.90;50.20;;;-142.21;70.68;112049.66;4954518;28;20536;-76
2022/03/24 04:29:26;;;;;;;18.50;11.67;;;7.90;50.40;;;-142.21;73.10;112049.66;4954209;28;20536;-77
2022/03/24 04:31:55;;;;;;;15.50;10.60;;;7.90;51.80;;;-142.21;71.46;112049.66;4954685;28;20541;-76
2022/03/24 04:34:22;;;;;;;14.00;10.07;;;7.90;51.70;;;-142.21;70.96;112049.66;4955100;28;21025;-77
2022/03/24 04:36:50;;;;;;;16.97;11.80;;;7.90;51.20;;;-142.21;70.44;112049.66;4957489;28;20449;-77
2022/03/24 04:39:17;;;;;;;16.23;10.80;;;7.80;51.50;;;-142.21;70.04;112049.66;4958259;28;20473;-76
2022/03/24 04:41:45;;;;;;;14.88;10.02;;;7.70;50.80;;;-142.21;70.42;112049.66;4958265;28;20488;-77
2022/03/24 04:44:13;;;;;;;16.83;11.07;;;7.80;50.40;;;-142.21;70.49;112049.66;4958941;28;20261;-75
2022/03/24 04:46:40;;;;;;;16.60;11.50;;;7.80;50.80;;;-142.21;72.82;112049.66;4957864;28;20449;-75
2022/03/24 04:49:09;;;;;;;15.97;11.10;;;7.70;51.00;;;-142.21;73.90;112049.66;4958166;28;20539;-75
2022/03/24 04:51:37;;;;;;;16.30;11.53;;;7.70;51.60;;;-142.21;73.43;112049.66;4957632;28;20440;-76
2022/03/24 04:54:04;;;;;;;15.50;10.77;;;7.60;51.60;;;-142.21;74.67;112049.66;4958495;28;20494;-75
2022/03/24 04:56:31;;;;;;;15.40;10.90;;;7.50;52.40;;;-142.21;74.73;112049.66;4957635;28;20993;-76
2022/03/24 04:59:00;;;;;;;14.13;10.70;;;7.50;52.60;;;-142.21;73.60;112049.66;4957261;29;20445;-76
2022/03/24 05:01:27;;;;;;;16.75;10.40;;;7.40;52.70;;;-142.21;74.45;112049.66;4957893;28;20856;-76
2022/03/24 05:03:54;;;;;;;17.33;11.27;;;7.30;52.60;;;-142.21;74.33;112049.66;4957892;28;20288;-76
2022/03/24 05:06:22;;;;;;;16.13;9.90;;;7.30;52.10;;;-142.21;75.69;112049.66;4958198;28;20457;-77
2022/03/24 05:08:50;;;;;;;13.27;11.07;;;7.50;52.00;;;-142.21;74.71;112049.66;4958318;28;20445;-77
2022/03/24 05:11:17;;;;;;;15.45;10.75;;;7.50;52.00;;;-142.21;76.62;112049.66;4957675;28;20476;-76
2022/03/24 05:13:45;;;;;;;14.95;9.93;;;7.60;52.10;;;-142.21;73.00;112049.66;4957734;28;20319;-78
2022/03/24 05:16:14;;;;;;;14.77;10.55;;;7.60;51.40;;;-142.21;73.19;112049.66;4958054;28;20213;-76
2022/03/24 05:18:41;;;;;;;15.63;10.83;;;7.50;51.10;;;-142.21;74.72;112049.66;4958027;28;20296;-76
2022/03/24 05:21:08;;;;;;;15.30;10.10;;;7.50;51.20;;;-142.21;74.99;112049.66;4957007;28;20500;-77
2022/03/24 05:23:35;;;;;;;16.77;11.30;;;7.60;51.50;;;-142.21;74.31;112049.66;4957360;28;20345;-76
2022/03/24 05:26:04;;;;;;;17.20;11.27;;;7.50;51.40;;;-142.21;75.18;112049.66;4957817;28;20487;-77
2022/03/24 05:28:31;;;;;;;16.47;11.17;;;7.60;51.80;;;-142.21;75.42;112049.66;4958302;28;20481;-77
2022/03/24 05:30:59;;;;;;;15.45;10.88;;;7.60;51.40;;;-142.21;74.82;112049.66;4957662;28;20965;-77
2022/03/24 05:33:28;;;;;;;17.87;11.27;;;7.60;51.40;;;-142.21;74.12;112049.66;4957348;28;20260;-77
2022/03/24 05:35:57;;;;;;;19.88;11.02;;;7.60;51.70;;;-142.21;72.91;112049.66;4957885;28;20456;-78
2022/03/24 05:38:24;;;;;;;15.20;10.90;;;7.40;52.40;;;-142.21;74.32;112049.66;4957346;28;20313;-76
2022/03/24 05:40:51;;;;;;;17.05;11.32;;;7.20;53.00;;;-142.21;73.95;112049.66;4957704;28;20205;-79
2022/03/24 05:43:19;;;;;;;16.52;11.18;;;7.20;53.00;;;-142.21;74.35;112049.66;4956977;28;20287;-77
2022/03/24 05:45:46;;;;;;;15.73;11.60;;;7.20;52.70;;;-142.21;74.85;112049.66;4956713;28;20221;-76
2022/03/24 05:48:13;;;;;;;15.45;11.60;;;7.20;52.10;;;-142.21;77.51;112049.66;4957500;28;20441;-77
2022/03/24 05:50:43;;;;;;;18.15;11.50;;;7.20;53.20;;;-142.21;74.54;112049.66;4957431;28;20209;-78
2022/03/24 05:53:10;;;;;;;17.10;11.10;;;7.30;52.80;;;-142.21;75.08;112049.66;4957380;28;20229;-77
2022/03/24 05:55:40;;;;;;;17.35;12.10;;;7.30;52.60;;;-142.21;74.89;112049.66;4956816;28;20472;-77
2022/03/24 05:58:07;;;;;;;16.67;11.20;;;7.40;52.30;;;-142.21;77.60;112049.66;4957366;28;20213;-78
2022/03/24 06:00:38;;;;;;;17.00;11.50;;;7.60;52.70;;;-142.21;75.55;112049.66;4957112;28;20461;-78
2022/03/24 06:03:07;;;;;;;17.50;11.60;;;7.60;52.90;;;-142.21;76.61;112049.66;4957405;29;20194;-79
2022/03/24 06:05:38;;;;;;;15.60;11.07;;;7.70;52.80;;;-142.21;78.08;112049.66;4956931;28;20456;-78
2022/03/24 06:08:09;;;;;;;17.25;12.23;;;7.90;52.60;;;-142.21;77.08;112049.66;4957657;29;20610;-78
2022/03/24 06:10:36;;;;;;;16.07;11.50;;;8.00;52.50;;;-142.21;76.69;112049.66;4957118;29;20205;-80
2022/03/24 06:13:03;;;;;;;20.07;12.23;;;8.10;52.00;;;-142.21;76.34;112049.66;4956561;28;20548;-76
2022/03/24 06:15:30;;;;;;;15.63;11.33;;;8.20;51.90;;;-142.21;77.79;112049.66;4956211;28;20464;-75
2022/03/24 06:17:58;;;;;;;18.17;11.73;;;8.30;52.00;;;-142.21;78.51;112049.66;4955623;28;20457;-76
2022/03/24 06:20:25;;;;;;;17.23;11.83;;;8.40;52.10;;;-142.21;78.69;112049.66;4956185;28;20860;-76
2022/03/24 06:22:54;;;;;;;15.13;10.60;;;8.60;52.50;;;-142.21;77.89;112049.66;4955590;28;20481;-77
2022/03/24 06:25:24;;;;;;;16.20;10.50;;;8.70;52.20;;;-142.21;75.99;112049.66;4956442;28;20504;-78
2022/03/24 06:27:51;;;;;;;17.93;12.07;;;8.90;51.60;;;-142.21;75.55;112049.66;4955608;28;20482;-77
2022/03/24 06:30:20;;;;;;;15.77;11.17;;;9.10;51.80;;;-142.21;74.83;112049.66;4956156;28;20447;-76
2022/03/24 06:32:47;;;;;;;17.57;11.37;;;9.20;52.00;;;-142.21;74.41;112049.66;4955846;28;20575;-75
2022/03/24 06:35:15;;;;;;;15.37;11.40;;;9.30;52.00;;;-142.21;74.16;112049.66;4956212;28;20464;-74
2022/03/24 06:37:44;;;;;;;17.73;11.50;;;9.40;52.40;;;-142.21;73.29;112049.66;4955795;28;20507;-73
2022/03/24 06:40:14;;;;;;;17.23;11.50;;;9.60;52.10;;;-142.21;74.41;112049.66;4955458;28;20445;-75
2022/03/24 06:42:43;;;;;;;18.40;12.47;;;9.90;51.70;;;-142.21;77.55;112049.66;4955915;28;20441;-74
2022/03/24 06:45:12;;;;;;;16.00;11.57;;;10.20;50.40;;;-142.21;78.55;112049.66;4955806;28;20467;-76
2022/03/24 06:47:41;;;;;;;15.13;11.33;;;10.40;50.50;;;-142.21;81.76;112049.66;4936750;29;20448;-77
2022/03/24 06:50:12;;;;;;;15.70;11.40;;;10.70;50.30;;;-142.21;80.99;112049.66;4936422;29;20936;-77
2022/03/24 06:52:39;;;;;;;15.13;11.60;;;11.00;50.20;;;-142.21;80.28;112049.66;4936658;29;20533;-74
2022/03/24 06:55:12;;;;;;;19.27;11.13;;;11.10;49.40;;;-142.21;80.16;112049.66;4936142;29;20461;-76
2022/03/24 06:57:41;;;;;;;17.73;12.47;;;11.30;49.10;;;-142.21;78.17;112049.66;4936124;29;20765;-74
2022/03/24 07:00:12;;;;;;;13.40;10.97;;;11.60;48.60;;;-142.21;80.12;112049.66;4940044;28;20544;-76
2022/03/24 07:02:39;;;;;;;14.97;11.57;;;12.00;48.60;;;-142.21;77.82;112049.66;4935464;29;20461;-77
2022/03/24 07:05:08;;;;;;;16.80;11.00;;;12.30;47.90;;;-142.21;76.85;112049.66;4950648;28;20472;-79
2022/03/24 07:07:36;;;;;;;16.03;11.50;;;12.60;47.80;;;-142.21;75.79;112049.66;4955494;28;20492;-77
2022/03/24 07:10:04;;;;;;;12.97;10.27;;;13.00;47.00;;;-142.21;69.48;112049.66;4956240;28;20808;-75
2022/03/24 07:12:32;;;;;;;11.97;10.10;;;13.40;45.60;;;-142.21;67.70;112049.66;4956275;28;20449;-79
2022/03/24 07:15:07;;;;;;;12.37;9.93;;;13.90;44.60;;;-142.21;66.33;112049.66;4955815;28;21019;-76
2022/03/24 07:17:36;;;;;;;15.00;9.87;;;14.30;43.60;;;-142.21;63.53;112049.66;4956019;29;20453;-76
2022/03/24 07:20:05;;;;;;;16.03;11.47;;;14.50;42.70;;;-142.21;64.23;112049.66;4956170;28;20509;-76
2022/03/24 07:22:34;;;;;;;14.67;11.23;;;14.80;42.70;;;-142.21;61.39;112049.66;4955543;28;20900;-76
2022/03/24 07:25:02;;;;;;;14.33;10.03;;;14.90;41.20;;;-142.21;61.39;112049.66;4964552;28;20498;-76
2022/03/24 07:27:30;;;;;;;13.03;8.80;;;15.00;41.30;;;-142.21;61.53;112049.66;4955868;28;20463;-79
2022/03/24 07:29:57;;;;;;;12.23;8.80;;;15.50;40.50;;;-142.21;59.39;112049.66;4955035;28;20461;-78
2022/03/24 07:32:26;;;;;;;11.40;8.80;;;15.70;39.60;;;-142.21;63.15;112049.66;4954624;28;20449;-78
2022/03/24 07:34:56;;;;;;;12.50;9.50;;;15.50;40.10;;;-142.21;60.87;112049.66;4954935;28;20551;-76
2022/03/24 07:37:24;;;;;;;12.77;9.33;;;14.90;40.30;;;-142.21;59.14;112049.66;4956333;28;20472;-81
2022/03/24 07:39:51;;;;;;;12.13;9.40;;;14.50;40.90;;;-142.21;65.43;112049.66;4954644;28;20508;-79
2022/03/24 07:42:18;;;;;;;12.70;10.03;;;14.30;42.30;;;-142.21;65.01;112049.66;4954901;28;20984;-80
2022/03/24 07:44:46;;;;;;;14.20;11.03;;;14.60;42.90;;;-142.21;57.08;112049.66;4954393;28;20459;-80
2022/03/24 07:47:13;;;;;;;13.00;9.47;;;14.90;41.10;;;-142.21;59.53;112049.66;4955255;28;20826;-79
2022/03/24 07:49:42;;;;;;;13.23;10.33;;;15.60;40.90;;;-142.21;62.20;112049.66;4954933;29;20767;-79
2022/03/24 07:52:15;;;;;;;14.20;10.70;;;15.50;41.10;;;-142.21;65.44;112049.66;4955095;28;20459;-78
2022/03/24 07:54:58;;;;;;;13.83;11.53;;;15.30;42.00;;;-142.21;64.76;112049.66;4954547;29;20472;-78
2022/03/24 07:57:27;;;;;;;15.43;10.97;;;15.00;41.40;;;-142.21;65.98;112049.66;4955410;29;20460;-80
2022/03/24 07:59:54;;;;;;;13.33;10.43;;;14.70;43.10;;;-142.21;62.11;112049.66;4955107;29;20445;-76
2022/03/24 08:02:22;;;;;;;17.37;10.33;;;14.70;42.20;;;-142.21;66.28;112049.66;4955197;28;20462;-81
2022/03/24 08:04:52;;;;;;;13.30;10.03;;;14.60;43.80;;;-142.21;64.72;112049.66;4955857;28;20485;-80
2022/03/24 08:07:19;;;;;;;15.90;10.13;;;14.50;43.30;;;-142.21;64.66;112049.66;4935376;29;20465;-79
2022/03/24 08:09:48;;;;;;;12.83;10.07;;;14.60;43.50;;;-142.21;62.28;112049.66;4958304;28;20449;-82
2022/03/24 08:12:15;;;;;;;12.27;9.97;;;14.50;43.30;;;-142.21;61.60;112049.66;4959799;28;20485;-79
2022/03/24 08:14:42;;;;;;;11.83;9.17;;;14.60;43.30;;;-142.21;57.89;112049.66;4958782;28;20567;-80
2022/03/24 08:17:10;;;;;;;13.23;9.10;;;14.60;42.20;;;-142.21;56.95;112049.66;4959248;28;20487;-79
2022/03/24 08:19:40;;;;;;;12.87;9.10;;;14.80;42.10;;;-142.21;56.85;112049.66;4958842;28;20448;-81
2022/03/24 08:22:09;;;;;;;12.73;9.47;;;14.90;42.10;;;-142.21;57.00;112049.66;4958776;28;20510;-80
2022/03/24 08:24:36;;;;;;;13.70;9.77;;;15.10;42.10;;;-142.21;56.98;112049.66;4959358;29;21052;-80
2022/03/24 08:27:04;;;;;;;12.40;9.77;;;15.50;42.50;;;-142.21;55.77;112049.66;4958111;28;20440;-81
2022/03/24 08:29:31;;;;;;;13.23;9.80;;;15.80;41.40;;;-142.21;55.51;112049.66;4958426;28;20450;-79
2022/03/24 08:31:58;;;;;;;13.43;9.77;;;15.90;41.90;;;-142.21;55.28;112049.66;4957552;28;20455;-80
2022/03/24 08:34:26;;;;;;;11.70;9.97;;;16.00;41.50;;;-142.21;54.79;112049.66;4958351;28;20516;-80
2022/03/24 08:36:54;;;;;;;15.07;10.33;;;16.00;41.40;;;-142.21;55.64;112049.66;4958648;28;20464;-81
2022/03/24 08:39:22;;;;;;;12.90;10.40;;;16.00;41.40;;;-142.21;54.47;112049.66;4958234;28;20488;-80
2022/03/24 08:41:51;;;;;;;14.47;10.97;;;16.00;41.10;;;-142.21;51.29;112049.66;4958667;28;20456;-79
2022/03/24 08:44:18;;;;;;;16.70;11.67;;;16.00;40.20;;;-142.21;52.33;112049.66;4957708;28;20456;-80
2022/03/24 08:46:46;;;;;;;17.93;12.27;;;16.70;40.70;;;-142.21;52.12;112049.66;4958045;28;20969;-81
2022/03/24 08:49:13;;;;;;;18.33;12.67;;;17.40;39.90;;;-142.21;51.26;112049.66;4957705;28;20548;-81
2022/03/24 08:51:41;;;;;;;16.67;11.83;;;17.70;38.90;;;-142.21;50.23;112049.66;4958276;28;20533;-81
2022/03/24 08:54:09;;;;;;;17.47;12.07;;;17.80;37.70;;;-142.21;45.30;112049.66;4957245;28;21001;-82
2022/03/24 08:56:38;;;;;;;13.97;11.00;;;17.70;37.00;;;-142.21;47.05;112049.66;4958130;28;20448;-76
2022/03/24 08:59:05;;;;;;;15.67;11.50;;;18.00;37.70;;;-142.21;46.40;112049.66;4957239;28;20479;-76
2022/03/24 09:01:32;;;;;;;14.90;12.17;;;18.90;38.20;;;-142.21;45.62;112049.66;4957222;28;20205;-75
2022/03/24 09:04:01;;;;;;;14.10;11.70;;;20.20;37.20;;;-142.21;44.19;112049.66;4957499;28;20296;-75
2022/03/24 09:06:28;;;;;;;16.77;13.73;;;21.80;35.60;;;-142.21;45.36;112049.66;4957401;28;20572;-76
2022/03/24 09:08:55;;;;;;;14.70;11.93;;;23.40;34.00;;;-142.21;42.89;112049.66;4957130;28;20240;-78
2022/03/24 09:11:22;;;;;;;13.17;11.20;;;24.80;32.00;;;-142.21;42.82;112049.66;4956451;29;20556;-77
2022/03/24 09:13:52;;;;;;;17.00;12.37;;;26.00;31.00;;;-142.21;42.71;112049.66;4957059;28;20782;-75
2022/03/24 09:16:19;;;;;;;14.20;12.73;;;27.20;29.50;;;-142.21;43.94;112049.66;4956424;28;20208;-77
2022/03/24 09:18:46;;;;;;;14.63;12.30;;;28.20;28.50;;;-142.21;43.01;112049.66;4957167;29;20209;-77
2022/03/24 09:21:14;;;;;;;14.60;12.87;;;29.10;28.00;;;-142.21;40.99;112049.66;4956077;28;20299;-76
2022/03/24 09:23:42;;;;;;;13.87;12.40;;;29.70;27.10;;;-142.21;41.58;112049.66;4956053;28;20241;-78
2022/03/24 09:26:12;;;;;;;14.70;13.20;;;30.30;27.00;;;-142.21;39.28;112049.66;4958429;28;20324;-78
2022/03/24 09:28:39;;;;;;;14.17;12.50;;;30.40;24.60;;;-142.21;41.69;112049.66;4956469;29;20248;-77
2022/03/24 09:31:08;;;;;;;16.00;13.53;;;30.60;25.50;;;-142.21;40.62;112049.66;4957057;29;20208;-78
2022/03/24 09:33:36;;;;;;;14.50;12.73;;;31.30;25.40;;;-142.21;38.45;112049.66;4956067;28;20233;-78
2022/03/24 09:36:03;;;;;;;15.07;13.47;;;32.00;25.10;;;-142.21;39.67;112049.66;4956955;29;20594;-76
2022/03/24 09:38:30;;;;;;;16.07;14.27;;;32.50;24.70;;;-142.21;38.36;112049.66;4956491;28;20303;-78
2022/03/24 09:40:58;;;;;;;16.23;13.00;;;32.90;24.20;;;-142.21;39.33;112049.66;4956763;29;20213;-77
2022/03/24 09:43:28;;;;;;;15.97;13.17;;;33.10;22.90;;;-142.21;39.67;112049.66;4956606;28;20256;-77
2022/03/24 09:45:56;;;;;;;14.30;12.80;;;33.30;23.20;;;-142.21;36.72;112049.66;4956188;29;20301;-78
2022/03/24 09:48:25;;;;;;;14.33;12.93;;;33.40;23.30;;;-142.21;36.70;112049.66;4957052;29;20311;-78
2022/03/24 09:50:53;;;;;;;15.47;13.87;;;33.60;22.90;;;-142.21;38.56;112049.66;4956313;29;20205;-78
2022/03/24 09:53:22;;;;;;;15.57;13.97;;;33.60;22.00;;;-142.21;35.01;112049.66;4957021;29;20217;-78
2022/03/24 09:55:51;;;;;;;14.23;12.77;;;33.70;21.80;;;-142.21;36.21;112049.66;4956037;29;20613;-78